createdAt,value
2018-10-02T00:00:32.890Z,7.20
2018-10-02T00:03:01.503Z,9.03
2018-10-02T00:05:30.133Z,4.55
2018-10-02T00:07:58.780Z,13.80
2018-10-02T00:10:27.552Z,5.78
2018-10-02T00:13:01.529Z,7.47
2018-10-02T00:15:30.128Z,7.92
2018-10-02T00:17:58.700Z,9.30
2018-10-02T00:20:27.418Z,10.53
2018-10-02T00:22:56.028Z,9.40
2018-10-02T00:25:24.604Z,7.42
2018-10-02T00:27:53.765Z,5.25
2018-10-02T00:30:22.354Z,3.50
2018-10-02T00:32:50.933Z,13.72
2018-10-02T00:35:20.085Z,3.10
2018-10-02T00:37:48.677Z,17.75
2018-10-02T00:40:17.288Z,5.50
2018-10-02T00:42:46.140Z,3.25
2018-10-02T00:45:15.024Z,5.12
2018-10-02T00:47:43.591Z,6.95
2018-10-02T00:50:12.285Z,4.85
2018-10-02T00:52:40.856Z,2.95
2018-10-02T00:55:09.632Z,4.22
2018-10-02T00:57:38.364Z,6.17
2018-10-02T01:00:07.023Z,4.22
2018-10-02T01:02:35.601Z,2.58
2018-10-02T01:05:04.364Z,9.88
2018-10-02T01:07:33.351Z,2.27
2018-10-02T01:10:01.916Z,2.62
2018-10-02T01:12:30.519Z,5.45
2018-10-02T01:14:59.080Z,4.70
2018-10-02T01:17:27.661Z,4.60
2018-10-02T01:19:56.284Z,11.12
2018-10-02T01:22:24.863Z,7.30
2018-10-02T01:24:53.436Z,6.80
2018-10-02T01:27:22.048Z,4.10
2018-10-02T01:29:50.792Z,4.33
2018-10-02T01:32:19.371Z,5.80
2018-10-02T01:34:48.592Z,9.88
2018-10-02T01:37:17.227Z,4.78
2018-10-02T01:39:45.808Z,4.60
2018-10-02T01:42:14.832Z,7.22
2018-10-02T01:44:43.412Z,1.82
2018-10-02T01:47:13.268Z,9.08
2018-10-02T01:49:41.889Z,8.10
2018-10-02T01:52:10.488Z,2.52
2018-10-02T01:54:39.077Z,2.70
2018-10-02T01:57:09.192Z,2.70
2018-10-02T01:59:38.295Z,8.65
2018-10-02T02:02:06.919Z,7.00
2018-10-02T02:04:35.792Z,4.75
2018-10-02T02:07:04.390Z,6.20
2018-10-02T02:09:32.987Z,9.75
2018-10-02T02:12:02.031Z,3.22
2018-10-02T02:14:30.618Z,8.60
2018-10-02T02:16:59.182Z,7.42
2018-10-02T02:19:28.275Z,11.20
2018-10-02T02:21:57.317Z,6.92
2018-10-02T02:24:25.898Z,6.80
2018-10-02T02:26:54.608Z,3.22
2018-10-02T02:29:23.183Z,10.68
2018-10-02T02:31:51.785Z,15.95
2018-10-02T02:34:20.628Z,6.78
2018-10-02T02:36:49.754Z,5.60
2018-10-02T02:39:18.339Z,3.60
2018-10-02T02:41:47.427Z,13.98
2018-10-02T02:44:16.001Z,4.30
2018-10-02T02:46:44.617Z,3.45
2018-10-02T02:49:18.776Z,6.40
2018-10-02T02:51:47.447Z,3.80
2018-10-02T02:54:16.056Z,10.18
2018-10-02T02:56:44.752Z,15.13
2018-10-02T02:59:13.358Z,5.87
2018-10-02T03:01:41.940Z,5.55
2018-10-02T03:04:10.892Z,2.98
2018-10-02T03:06:39.455Z,5.75
2018-10-02T03:09:09.172Z,5.87
2018-10-02T03:11:37.851Z,4.28
2018-10-02T03:14:06.444Z,7.12
2018-10-02T03:16:35.044Z,4.50
2018-10-02T03:19:03.676Z,9.43
2018-10-02T03:21:32.275Z,10.03
2018-10-02T03:24:01.045Z,6.05
2018-10-02T03:26:29.667Z,11.03
2018-10-02T03:28:58.259Z,14.95
2018-10-02T03:31:26.823Z,4.95
2018-10-02T03:33:56.004Z,4.22
2018-10-02T03:36:24.823Z,17.73
2018-10-02T03:38:53.380Z,14.80
2018-10-02T03:41:22.081Z,3.00
2018-10-02T03:43:50.676Z,4.83
2018-10-02T03:46:19.632Z,3.70
2018-10-02T03:48:48.629Z,8.78
2018-10-02T03:51:17.408Z,12.43
2018-10-02T03:53:45.992Z,9.53
2018-10-02T03:56:14.604Z,4.65
2018-10-02T03:58:43.175Z,8.75
2018-10-02T04:01:11.957Z,10.55
2018-10-02T04:03:42.029Z,2.58
2018-10-02T04:06:10.581Z,6.80
2018-10-02T04:08:39.252Z,4.97
2018-10-02T04:11:08.309Z,6.15
2018-10-02T04:13:36.876Z,4.12
2018-10-02T04:16:05.443Z,4.65
2018-10-02T04:18:34.132Z,3.72
2018-10-02T04:21:03.704Z,8.80
2018-10-02T04:23:32.379Z,9.28
2018-10-02T04:26:01.484Z,6.53
2018-10-02T04:28:30.158Z,3.92
2018-10-02T04:30:58.716Z,3.80
2018-10-02T04:33:27.929Z,3.55
2018-10-02T04:35:56.545Z,6.95
2018-10-02T04:38:25.164Z,9.33
2018-10-02T04:40:53.861Z,3.08
2018-10-02T04:43:22.432Z,7.00
2018-10-02T04:45:51.007Z,11.60
2018-10-02T04:48:19.651Z,4.10
2018-10-02T04:50:48.989Z,5.72
2018-10-02T04:53:17.560Z,5.53
2018-10-02T04:55:46.367Z,8.23
2018-10-02T04:58:14.952Z,3.87
2018-10-02T05:00:43.553Z,5.83
2018-10-02T05:03:12.609Z,6.40
2018-10-02T05:05:41.208Z,7.75
2018-10-02T05:08:09.814Z,9.23
2018-10-02T05:10:38.530Z,6.10
2018-10-02T05:13:07.203Z,19.87
2018-10-02T05:15:35.800Z,10.82
2018-10-02T05:18:04.492Z,5.67
2018-10-02T05:20:33.079Z,7.70
2018-10-02T05:23:01.708Z,4.83
2018-10-02T05:25:30.703Z,4.92
2018-10-02T05:27:59.272Z,9.80
2018-10-02T05:30:27.847Z,16.25
2018-10-02T05:32:56.638Z,8.75
2018-10-02T05:35:25.229Z,6.62
2018-10-02T05:37:54.324Z,5.05
2018-10-02T05:40:22.964Z,7.08
2018-10-02T05:42:51.539Z,5.37
2018-10-02T05:45:20.152Z,5.42
2018-10-02T05:47:48.852Z,6.70
2018-10-02T05:50:17.453Z,8.73
2018-10-02T05:52:47.044Z,12.18
2018-10-02T05:55:15.664Z,8.40
2018-10-02T05:57:44.252Z,3.12
2018-10-02T06:00:12.829Z,7.55
2018-10-02T06:02:41.508Z,7.28
2018-10-02T06:05:10.128Z,6.80
2018-10-02T06:07:38.692Z,9.18
2018-10-02T06:10:08.697Z,9.33
2018-10-02T06:12:37.279Z,5.85
2018-10-02T06:15:06.623Z,6.62
2018-10-02T06:17:35.309Z,11.73
2018-10-02T06:20:03.926Z,13.65
2018-10-02T06:22:32.511Z,8.08
2018-10-02T06:25:01.156Z,5.92
2018-10-02T06:27:29.753Z,11.90
2018-10-02T06:29:58.337Z,17.05
2018-10-02T06:32:27.307Z,18.48
2018-10-02T06:34:56.539Z,6.20
2018-10-02T06:37:25.152Z,5.62
2018-10-02T06:39:53.764Z,11.50
2018-10-02T06:42:22.319Z,6.17
2018-10-02T06:44:50.924Z,11.40
2018-10-02T06:47:19.768Z,19.87
2018-10-02T06:49:48.364Z,10.43
2018-10-02T06:52:17.136Z,12.90
2018-10-02T06:54:46.008Z,3.67
2018-10-02T06:57:15.027Z,7.12
2018-10-02T06:59:43.623Z,15.28
2018-10-02T07:02:12.332Z,7.85
2018-10-02T07:04:41.913Z,11.10
2018-10-02T07:07:10.518Z,13.15
2018-10-02T07:09:39.214Z,10.25
2018-10-02T07:12:07.807Z,7.87
2018-10-02T07:14:36.907Z,5.30
2018-10-02T07:17:06.045Z,16.10
2018-10-02T07:19:34.756Z,5.17
2018-10-02T07:22:03.336Z,12.53
2018-10-02T07:24:32.051Z,9.20
2018-10-02T07:27:00.757Z,6.15
2018-10-02T07:29:29.340Z,10.13
2018-10-02T07:31:58.005Z,8.23
2018-10-02T07:34:26.559Z,4.67
2018-10-02T07:36:55.540Z,6.10
2018-10-02T07:39:24.192Z,10.93
2018-10-02T07:41:52.775Z,10.55
2018-10-02T07:44:21.798Z,7.17
2018-10-02T07:46:50.533Z,9.85
2018-10-02T07:49:19.200Z,6.65
2018-10-02T07:51:47.826Z,10.35
2018-10-02T07:54:16.839Z,16.57
2018-10-02T07:56:45.521Z,6.95
2018-10-02T07:59:13.996Z,6.72
2018-10-02T08:01:42.608Z,7.12
2018-10-02T08:04:11.190Z,7.30
2018-10-02T08:06:40.256Z,12.35
2018-10-02T08:09:10.878Z,5.00
2018-10-02T08:11:39.580Z,13.05
2018-10-02T08:14:08.756Z,12.95
2018-10-02T08:16:37.888Z,5.15
2018-10-02T08:19:06.491Z,9.08
2018-10-02T08:21:35.092Z,4.60
2018-10-02T08:24:03.737Z,10.20
2018-10-02T08:26:32.407Z,8.65
2018-10-02T08:29:01.010Z,5.90
2018-10-02T08:31:29.739Z,6.55
2018-10-02T08:33:58.329Z,14.93
2018-10-02T08:36:27.001Z,6.55
2018-10-02T08:38:55.703Z,5.33
2018-10-02T08:41:24.279Z,7.63
2018-10-02T08:43:52.915Z,6.80
2018-10-02T08:46:21.543Z,4.90
2018-10-02T08:48:50.484Z,2.93
2018-10-02T08:51:19.076Z,3.00
2018-10-02T08:53:48.142Z,7.60
2018-10-02T08:56:16.696Z,7.50
2018-10-02T08:58:45.367Z,5.87
2018-10-02T09:01:14.095Z,15.70
2018-10-02T09:03:43.060Z,5.43
2018-10-02T09:06:11.670Z,7.70
2018-10-02T09:08:40.424Z,20.70
2018-10-02T09:11:09.087Z,42.57
2018-10-02T09:13:37.743Z,52.97
2018-10-02T09:16:06.447Z,39.43
2018-10-02T09:18:35.072Z,22.57
2018-10-02T09:21:03.656Z,4.67
2018-10-02T09:23:32.259Z,8.23
2018-10-02T09:26:00.941Z,9.07
2018-10-02T09:28:29.530Z,8.00
2018-10-02T09:31:03.884Z,10.23
2018-10-02T09:33:37.755Z,10.33
2018-10-02T09:36:11.669Z,6.93
2018-10-02T09:38:45.410Z,14.77
2018-10-02T09:41:19.195Z,6.33
2018-10-02T09:43:50.207Z,9.13
2018-10-02T09:46:19.185Z,3.93
2018-10-02T09:48:47.795Z,4.80
2018-10-02T09:51:16.508Z,4.53
2018-10-02T09:53:45.224Z,5.13
2018-10-02T09:56:13.800Z,9.20
2018-10-02T09:58:42.861Z,4.80
2018-10-02T10:01:16.601Z,3.67
2018-10-02T10:03:45.168Z,6.67
2018-10-02T10:06:13.739Z,5.93
2018-10-02T10:08:42.435Z,8.10
2018-10-02T10:11:11.088Z,4.33
2018-10-02T10:13:40.089Z,9.03
2018-10-02T10:16:08.976Z,2.30
2018-10-02T10:18:37.560Z,3.53
2018-10-02T10:21:06.140Z,5.17
2018-10-02T10:23:35.197Z,5.73
2018-10-02T10:26:03.799Z,3.20
2018-10-02T10:28:32.463Z,9.73
2018-10-02T10:31:01.080Z,2.60
2018-10-02T10:33:29.718Z,5.10
2018-10-02T10:35:58.268Z,2.40
2018-10-02T10:38:26.977Z,4.00
2018-10-02T10:40:55.925Z,4.80
2018-10-02T10:43:24.543Z,3.93
2018-10-02T10:45:53.294Z,8.93
2018-10-02T10:48:21.874Z,2.63
2018-10-02T10:50:51.416Z,11.70
2018-10-02T10:53:20.016Z,13.23
2018-10-02T10:55:48.608Z,6.30
2018-10-02T10:58:17.189Z,9.13
2018-10-02T11:00:45.913Z,8.50
2018-10-02T11:03:14.462Z,9.03
2018-10-02T11:05:43.072Z,2.57
2018-10-02T11:08:11.692Z,2.13
2018-10-02T11:10:40.682Z,3.17
2018-10-02T11:13:09.239Z,5.93
2018-10-02T11:15:37.843Z,2.03
2018-10-02T11:18:06.436Z,3.53
2018-10-02T11:20:36.665Z,6.30
2018-10-02T11:23:05.315Z,2.03
2018-10-02T11:25:33.926Z,7.03
2018-10-02T11:28:02.501Z,3.03
2018-10-02T11:30:31.152Z,3.57
2018-10-02T11:32:59.725Z,5.47
2018-10-02T11:35:28.380Z,7.77
2018-10-02T11:37:57.004Z,5.83
2018-10-02T11:40:25.653Z,2.07
2018-10-02T11:42:54.229Z,2.33
2018-10-02T11:45:22.981Z,9.40
2018-10-02T11:47:51.580Z,4.30
2018-10-02T11:50:20.188Z,3.60
2018-10-02T11:52:48.880Z,4.17
2018-10-02T11:55:17.574Z,3.47
2018-10-02T11:57:46.091Z,2.27
2018-10-02T12:00:15.405Z,4.03
2018-10-02T12:02:43.891Z,1.93
2018-10-02T12:05:12.496Z,5.13
2018-10-02T12:07:41.132Z,5.57
2018-10-02T12:10:09.722Z,3.63
2018-10-02T12:12:38.312Z,3.60
2018-10-02T12:15:06.950Z,3.80
2018-10-02T12:17:35.531Z,3.00
2018-10-02T12:20:04.385Z,3.50
2018-10-02T12:22:32.948Z,6.50
2018-10-02T12:25:01.529Z,3.40
2018-10-02T12:27:30.139Z,1.93
2018-10-02T12:29:58.771Z,3.30
2018-10-02T12:32:27.349Z,4.47
2018-10-02T12:34:56.328Z,5.97
2018-10-02T12:37:25.132Z,4.57
2018-10-02T12:39:53.705Z,3.53
2018-10-02T12:42:22.273Z,3.47
2018-10-02T12:44:50.891Z,3.47
2018-10-02T12:47:19.469Z,9.10
2018-10-02T12:49:48.054Z,13.37
2018-10-02T12:52:16.767Z,4.10
2018-10-02T12:54:45.448Z,6.17
2018-10-02T12:57:14.020Z,16.13
2018-10-02T12:59:43.064Z,22.97
2018-10-02T13:02:11.635Z,18.37
2018-10-02T13:04:40.222Z,3.67
2018-10-02T13:07:08.898Z,4.47
2018-10-02T13:09:37.499Z,18.30
2018-10-02T13:12:06.085Z,24.33
2018-10-02T13:14:34.735Z,11.37
2018-10-02T13:17:03.303Z,6.33
2018-10-02T13:19:31.868Z,2.37
2018-10-02T13:22:00.567Z,9.63
2018-10-02T13:24:29.197Z,19.67
2018-10-02T13:26:57.781Z,15.43
2018-10-02T13:29:26.519Z,5.53
2018-10-02T13:31:55.130Z,8.87
2018-10-02T13:34:23.815Z,4.03
2018-10-02T13:36:52.511Z,4.30
2018-10-02T13:39:21.124Z,3.00
2018-10-02T13:41:49.704Z,4.00
2018-10-02T13:44:18.308Z,2.30
2018-10-02T13:46:46.896Z,2.23
2018-10-02T13:49:15.479Z,3.73
2018-10-02T13:51:44.154Z,3.47
2018-10-02T13:54:12.728Z,2.53
2018-10-02T13:56:41.299Z,3.13
2018-10-02T13:59:10.308Z,8.17
2018-10-02T14:01:38.893Z,10.77
2018-10-02T14:04:07.509Z,8.30
2018-10-02T14:06:36.180Z,6.37
2018-10-02T14:09:06.459Z,15.43
2018-10-02T14:11:35.044Z,4.20
2018-10-02T14:14:04.641Z,4.20
2018-10-02T14:16:33.258Z,4.40
2018-10-02T14:19:01.865Z,6.40
2018-10-02T14:21:30.835Z,7.47
2018-10-02T14:23:59.384Z,2.22
2018-10-02T14:26:28.013Z,3.17
2018-10-02T14:28:56.671Z,14.20
2018-10-02T14:31:25.276Z,11.83
2018-10-02T14:33:54.833Z,7.60
2018-10-02T14:36:24.545Z,3.27
2018-10-02T14:38:54.830Z,5.00
2018-10-02T14:41:24.449Z,5.57
2018-10-02T14:43:53.702Z,6.43
2018-10-02T14:46:23.959Z,1.40
2018-10-02T14:48:53.315Z,10.00
2018-10-02T14:51:22.982Z,3.00
2018-10-02T14:53:51.926Z,3.33
2018-10-02T14:56:20.804Z,8.37
2018-10-02T14:58:50.055Z,4.60
2018-10-02T15:01:19.624Z,2.57
2018-10-02T15:03:49.271Z,5.90
2018-10-02T15:06:19.117Z,9.53
2018-10-02T15:08:48.946Z,3.93
2018-10-02T15:11:19.117Z,1.80
2018-10-02T15:13:48.407Z,6.70
2018-10-02T15:16:17.536Z,9.13
2018-10-02T15:18:46.244Z,11.33
2018-10-02T15:21:14.949Z,6.83
2018-10-02T15:23:43.612Z,2.73
2018-10-02T15:26:13.304Z,10.23
2018-10-02T15:28:42.267Z,4.63
2018-10-02T15:31:11.826Z,2.33
2018-10-02T15:33:41.367Z,7.23
2018-10-02T15:36:11.170Z,6.87
2018-10-02T15:38:41.030Z,4.90
2018-10-02T15:41:09.704Z,3.50
2018-10-02T15:43:38.263Z,4.27
2018-10-02T15:46:07.480Z,1.97
2018-10-02T15:48:36.171Z,3.67
2018-10-02T15:51:06.133Z,6.50
2018-10-02T15:53:36.427Z,4.80
2018-10-02T15:56:06.212Z,7.40
2018-10-02T15:58:34.975Z,10.07
2018-10-02T16:01:03.829Z,3.93
2018-10-02T16:03:32.560Z,5.27
2018-10-02T16:06:01.419Z,5.77
2018-10-02T16:08:30.576Z,2.87
2018-10-02T16:10:59.517Z,2.20
2018-10-02T16:13:28.123Z,3.00
2018-10-02T16:15:57.262Z,5.13
2018-10-02T16:18:27.663Z,12.37
2018-10-02T16:20:57.517Z,6.40
2018-10-02T16:23:26.143Z,3.00
2018-10-02T16:25:54.773Z,4.20
2018-10-02T16:28:23.491Z,3.40
2018-10-02T16:30:52.548Z,4.27
2018-10-02T16:33:21.150Z,6.43
2018-10-02T16:35:50.024Z,5.10
2018-10-02T16:38:18.680Z,13.50
2018-10-02T16:40:48.593Z,18.03
2018-10-02T16:43:18.532Z,19.73
2018-10-02T16:45:48.284Z,16.47
2018-10-02T16:48:17.998Z,25.90
2018-10-02T16:50:48.128Z,33.53
2018-10-02T16:53:16.796Z,44.33
2018-10-02T16:55:46.559Z,71.47
2018-10-02T16:58:15.223Z,102.80
2018-10-02T17:00:43.876Z,108.37
2018-10-02T17:03:12.537Z,109.33
2018-10-02T17:05:41.202Z,44.20
2018-10-02T17:08:09.772Z,29.33
2018-10-02T17:10:38.484Z,66.23
2018-10-02T17:13:07.099Z,63.33
2018-10-02T17:15:35.688Z,54.53
2018-10-02T17:18:04.288Z,11.87
2018-10-02T17:20:32.872Z,30.43
2018-10-02T17:23:01.514Z,51.70
2018-10-02T17:25:30.184Z,39.47
2018-10-02T17:27:58.784Z,49.00
2018-10-02T17:30:27.381Z,72.33
2018-10-02T17:32:56.073Z,146.57
2018-10-02T17:35:24.708Z,128.33
2018-10-02T17:37:53.304Z,80.40
2018-10-02T17:40:22.057Z,93.93
2018-10-02T17:42:50.640Z,94.70
2018-10-02T17:45:19.220Z,43.23
2018-10-02T17:47:48.183Z,26.33
2018-10-02T17:50:16.917Z,14.33
2018-10-02T17:52:45.804Z,10.37
2018-10-02T17:55:14.531Z,12.23
2018-10-02T17:57:43.105Z,5.50
2018-10-02T18:00:11.700Z,6.27
2018-10-02T18:02:40.596Z,5.53
2018-10-02T18:05:09.188Z,4.30
2018-10-02T18:07:37.834Z,6.90
2018-10-02T18:10:06.621Z,5.23
2018-10-02T18:12:35.240Z,2.47
2018-10-02T18:15:03.895Z,3.00
2018-10-02T18:17:32.613Z,4.90
2018-10-02T18:20:01.200Z,3.20
2018-10-02T18:22:29.828Z,3.70
2018-10-02T18:24:58.553Z,5.30
2018-10-02T18:27:27.189Z,9.73
2018-10-02T18:29:55.748Z,4.17
2018-10-02T18:32:24.452Z,6.33
2018-10-02T18:34:53.080Z,4.77
2018-10-02T18:37:22.185Z,6.20
2018-10-02T18:39:51.396Z,7.20
2018-10-02T18:42:20.446Z,8.60
2018-10-02T18:44:49.047Z,8.10
2018-10-02T18:47:17.671Z,7.47
2018-10-02T18:49:46.256Z,28.20
2018-10-02T18:52:14.859Z,31.10
2018-10-02T18:54:43.613Z,16.60
2018-10-02T18:57:12.197Z,12.53
2018-10-02T18:59:40.873Z,4.70
2018-10-02T19:02:09.713Z,2.83
2018-10-02T19:04:38.300Z,4.40
2018-10-02T19:07:06.889Z,1.87
2018-10-02T19:09:35.650Z,4.60
2018-10-02T19:12:09.344Z,4.30
2018-10-02T19:14:37.980Z,4.43
2018-10-02T19:17:06.594Z,1.60
2018-10-02T19:19:40.364Z,3.23
2018-10-02T19:22:09.040Z,2.50
2018-10-02T19:24:37.625Z,2.20
2018-10-02T19:27:06.694Z,3.10
2018-10-02T19:29:35.302Z,1.43
2018-10-02T19:32:12.092Z,4.90
2018-10-02T19:34:40.692Z,7.93
2018-10-02T19:37:14.476Z,6.43
2018-10-02T19:39:43.148Z,13.57
2018-10-02T19:42:12.084Z,10.00
2018-10-02T19:44:40.694Z,6.07
2018-10-02T19:47:09.311Z,3.40
2018-10-02T19:49:37.916Z,6.23
2018-10-02T19:52:16.816Z,3.20
2018-10-02T19:54:46.283Z,7.67
2018-10-02T19:57:16.924Z,2.63
2018-10-02T19:59:45.528Z,3.40
2018-10-02T20:02:14.623Z,4.00
2018-10-02T20:04:43.271Z,8.10
2018-10-02T20:07:11.938Z,2.50
2018-10-02T20:09:40.576Z,11.43
2018-10-02T20:12:09.568Z,2.30
2018-10-02T20:14:38.416Z,2.60
2018-10-02T20:17:07.358Z,2.90
2018-10-02T20:19:36.488Z,4.80
2018-10-02T20:22:05.117Z,2.80
2018-10-02T20:24:33.720Z,6.07
2018-10-02T20:27:02.545Z,1.90
2018-10-02T20:29:31.144Z,2.07
2018-10-02T20:31:59.726Z,6.90
2018-10-02T20:34:28.344Z,3.43
2018-10-02T20:36:56.915Z,6.00
2018-10-02T20:39:25.531Z,3.47
2018-10-02T20:41:54.635Z,8.93
2018-10-02T20:44:23.263Z,3.30
2018-10-02T20:46:51.844Z,4.97
2018-10-02T20:49:20.648Z,4.90
2018-10-02T20:51:49.177Z,5.60
2018-10-02T20:54:18.293Z,5.57
2018-10-02T20:56:46.936Z,2.40
2018-10-02T20:59:15.984Z,3.23
2018-10-02T21:01:44.573Z,3.10
2018-10-02T21:04:13.239Z,3.87
2018-10-02T21:06:42.247Z,3.00
2018-10-02T21:09:10.836Z,9.13
2018-10-02T21:11:39.669Z,6.50
2018-10-02T21:14:08.261Z,8.80
2018-10-02T21:16:36.826Z,3.47
2018-10-02T21:19:06.461Z,5.90
2018-10-02T21:21:35.098Z,2.90
2018-10-02T21:24:03.648Z,5.13
2018-10-02T21:26:32.357Z,4.15
2018-10-02T21:29:01.017Z,5.30
2018-10-02T21:31:29.653Z,1.57
2018-10-02T21:33:58.501Z,11.15
2018-10-02T21:36:27.093Z,6.97
2018-10-02T21:38:55.672Z,7.50
2018-10-02T21:41:24.312Z,6.27
2018-10-02T21:43:52.883Z,5.30
2018-10-02T21:46:21.460Z,7.83
2018-10-02T21:48:50.036Z,5.27
2018-10-02T21:51:18.604Z,3.30
2018-10-02T21:53:47.179Z,5.67
2018-10-02T21:56:15.887Z,3.50
2018-10-02T21:58:44.709Z,3.97
2018-10-02T22:01:14.354Z,2.27
2018-10-02T22:03:43.245Z,9.83
2018-10-02T22:06:11.796Z,10.27
2018-10-02T22:08:41.924Z,4.77
2018-10-02T22:11:10.616Z,6.57
2018-10-02T22:13:39.564Z,9.93
2018-10-02T22:16:08.136Z,5.87
2018-10-02T22:18:36.816Z,8.53
2018-10-02T22:21:05.400Z,4.20
2018-10-02T22:23:34.437Z,5.60
2018-10-02T22:26:03.123Z,3.00
2018-10-02T22:28:31.708Z,6.33
2018-10-02T22:31:01.242Z,3.43
2018-10-02T22:33:29.844Z,4.20
2018-10-02T22:35:58.439Z,4.87
2018-10-02T22:38:27.016Z,6.37
2018-10-02T22:40:56.128Z,4.33
2018-10-02T22:43:24.976Z,2.72
2018-10-02T22:45:53.568Z,2.15
2018-10-02T22:48:22.547Z,4.90
2018-10-02T22:50:51.127Z,3.90
2018-10-02T22:53:19.808Z,7.65
2018-10-02T22:55:48.560Z,3.93
2018-10-02T22:58:17.122Z,3.37
2018-10-02T23:00:45.756Z,2.92
2018-10-02T23:03:14.406Z,8.80
2018-10-02T23:05:43.430Z,10.90
2018-10-02T23:08:12.640Z,4.17
2018-10-02T23:10:41.373Z,4.90
2018-10-02T23:13:10.122Z,3.93
2018-10-02T23:15:38.757Z,15.90
2018-10-02T23:18:07.440Z,7.27
2018-10-02T23:20:36.033Z,5.03
2018-10-02T23:23:04.623Z,4.37
2018-10-02T23:25:33.673Z,3.50
2018-10-02T23:28:02.239Z,6.03
2018-10-02T23:30:31.091Z,6.77
2018-10-02T23:32:59.896Z,12.23
2018-10-02T23:35:28.509Z,6.70
2018-10-02T23:37:57.140Z,3.63
2018-10-02T23:40:25.835Z,6.50
2018-10-02T23:42:54.434Z,3.40
2018-10-02T23:45:23.003Z,3.17
2018-10-02T23:47:52.007Z,3.73
2018-10-02T23:50:20.600Z,1.42
2018-10-02T23:52:49.176Z,5.90
2018-10-02T23:55:19.525Z,5.90
2018-10-02T23:57:48.135Z,5.27
